»·PEaware :: SWA2817 KSAN-KLAS

SWA2817 :: KSAN-KLAS

FLIGHT INFORMATION

Flight Status: Arrived
Operator:
Southwest Airlines
More flights by this operator :: More flights under this callsign
Pilot: John C. (18682)
Aircraft: BOEING 737-800
(B738)
More flights by this aircraft type
Origin: KSAN San Diego Intl-Lindbergh
United States
Destination: KLAS McCarran Intl
United States
More flights between these airports :: More routes between these airports
Route: ++ MZB296042 SEBBY YELAH MISEN KEPEC6
File this flight plan on PilotEdge
Remarks:
Altitude:
(Current/Filed)
29,000ft
Speed:
(Current/Filed)
457kts
Departed: 02-Feb-20 10:22 AM
Arrived: 02-Feb-20 11:15 AM
Distance/Time
Traveled:
225nm/0:53
Distance/Time
To Go:
Arrived

Flight Plot

Page will automatically refresh every two minutes.

Flight plan parsing failed; only flown route is shown


Map Options




Map Legend


Flown Route
Filed Route
Departure Airport
Arrival Airport
Navaid (VOR, NDB)
Fix

Horizontal Profiles

Position Reports

Time Latitude Longitude Heading Altitude Ground
Speed
02-Feb-20 09:58 32.733851 -117.198126 207 20ft 0kts
02-Feb-20 09:59 32.733851 -117.198126 207 20ft 0kts
02-Feb-20 10:00 32.733851 -117.198126 207 20ft 0kts
02-Feb-20 10:01 32.733851 -117.198126 207 20ft 0kts
02-Feb-20 10:02 32.733851 -117.198126 207 20ft 0kts
02-Feb-20 10:03 32.733851 -117.198126 207 20ft 0kts
02-Feb-20 10:04 32.733851 -117.198126 207 20ft 0kts
02-Feb-20 10:05 32.733851 -117.198126 207 20ft 0kts
02-Feb-20 10:06 32.733851 -117.198126 207 20ft 0kts
02-Feb-20 10:07 32.733851 -117.198126 207 20ft 0kts
02-Feb-20 10:08 32.733851 -117.198126 207 20ft 0kts
02-Feb-20 10:09 32.733851 -117.198126 207 20ft 0kts
02-Feb-20 10:10 32.733851 -117.198126 207 20ft 0kts
02-Feb-20 10:11 32.733851 -117.198126 207 20ft 0kts
02-Feb-20 10:12 32.734243 -117.197888 207 20ft 1kts
02-Feb-20 10:13 32.734576 -117.198109 105 20ft 0kts
02-Feb-20 10:14 32.734576 -117.198108 105 20ft 0kts
02-Feb-20 10:15 32.734575 -117.198101 105 20ft 1kts
02-Feb-20 10:16 32.733543 -117.193884 106 24ft 19kts
02-Feb-20 10:17 32.731726 -117.186383 106 20ft 23kts
02-Feb-20 10:18 32.730054 -117.179507 105 21ft 19kts
02-Feb-20 10:19 32.729527 -117.176671 71 26ft 0kts
02-Feb-20 10:20 32.730438 -117.176830 287 27ft 19kts
02-Feb-20 10:21 32.739775 -117.214820 291 705ft 166kts
02-Feb-20 10:22 32.772167 -117.266065 301 1961ft 237kts
02-Feb-20 10:23 32.811013 -117.336754 306 4589ft 268kts
02-Feb-20 10:24 32.857187 -117.407626 306 7552ft 277kts
02-Feb-20 10:25 32.904570 -117.481197 306 10414ft 289kts
02-Feb-20 10:26 32.958957 -117.565930 306 12031ft 341kts
02-Feb-20 10:27 33.017474 -117.657217 306 14766ft 352kts
02-Feb-20 10:28 33.081017 -117.747616 316 17385ft 364kts
02-Feb-20 10:29 33.146556 -117.813706 317 19344ft 375kts
02-Feb-20 10:30 33.227339 -117.894781 318 21467ft 386kts
02-Feb-20 10:31 33.331746 -117.931406 352 23372ft 408kts
02-Feb-20 10:32 33.445938 -117.914971 7 25077ft 425kts
02-Feb-20 10:33 33.563423 -117.889525 6 26623ft 435kts
02-Feb-20 10:34 33.683676 -117.863874 6 28040ft 444kts
02-Feb-20 10:35 33.806542 -117.837624 6 29048ft 454kts
02-Feb-20 10:36 33.932531 -117.810659 6 29058ft 462kts
02-Feb-20 10:37 34.058963 -117.783486 8 29075ft 462kts
02-Feb-20 10:38 34.161304 -117.693203 56 29095ft 480kts
02-Feb-20 10:39 34.237038 -117.561442 48 29084ft 478kts
02-Feb-20 10:40 34.321498 -117.437672 47 29081ft 477kts
02-Feb-20 10:42 34.405286 -117.314244 48 29073ft 477kts
02-Feb-20 10:43 34.489506 -117.189757 48 29075ft 477kts
02-Feb-20 10:44 34.573473 -117.065192 48 29071ft 476kts
02-Feb-20 10:45 34.656796 -116.941151 48 29067ft 473kts
02-Feb-20 10:46 34.739190 -116.818053 49 29055ft 459kts
02-Feb-20 10:47 34.818122 -116.699747 49 29065ft 457kts
02-Feb-20 10:48 34.907334 -116.593067 35 28553ft 442kts
02-Feb-20 10:49 35.001542 -116.501953 35 26409ft 428kts
02-Feb-20 10:50 35.097442 -116.408624 37 24194ft 438kts
02-Feb-20 10:51 35.140230 -116.356862 43 24071ft 441kts
02-Feb-20 10:52 35.225162 -116.250144 43 24061ft 438kts
02-Feb-20 10:53 35.309224 -116.144534 43 22331ft 424kts
02-Feb-20 10:54 35.389901 -116.042864 44 20067ft 411kts
02-Feb-20 10:55 35.468222 -115.943860 44 17865ft 400kts
02-Feb-20 10:56 35.544473 -115.847187 44 15662ft 389kts
02-Feb-20 10:57 35.618729 -115.752764 44 13686ft 373kts
02-Feb-20 10:58 35.686358 -115.666403 44 13037ft 330kts
02-Feb-20 10:59 35.753079 -115.591781 24 13033ft 324kts
02-Feb-20 10:59 35.824070 -115.571647 358 13032ft 314kts
02-Feb-20 11:00 35.911421 -115.565403 7 13031ft 317kts
02-Feb-20 11:02 35.992228 -115.490499 61 12233ft 327kts
02-Feb-20 11:03 36.025629 -115.387130 80 11086ft 311kts
02-Feb-20 11:03 36.025844 -115.301503 96 10321ft 297kts
02-Feb-20 11:04 36.018414 -115.200095 97 9103ft 292kts
02-Feb-20 11:06 36.010637 -115.085628 95 8094ft 272kts
02-Feb-20 11:06 36.006295 -115.013462 94 7975ft 250kts
02-Feb-20 11:07 36.001335 -114.930136 93 6906ft 240kts
02-Feb-20 11:08 36.019163 -114.860853 13 5819ft 223kts
02-Feb-20 11:09 36.060199 -114.904930 291 5144ft 207kts
02-Feb-20 11:10 36.073197 -114.968448 273 4388ft 188kts
02-Feb-20 11:11 36.073204 -115.028107 271 3688ft 166kts
02-Feb-20 11:12 36.073556 -115.083002 270 2840ft 160kts
02-Feb-20 11:13 36.073695 -115.137650 269 2082ft 134kts
02-Feb-20 11:14 36.074576 -115.150217 300 2122ft 0kts
02-Feb-20 11:15 36.075883 -115.151533 354 2124ft 11kts
02-Feb-20 11:16 36.078708 -115.150076 93 2113ft 12kts
02-Feb-20 11:17 36.078968 -115.144876 8 2095ft 16kts
02-Feb-20 11:18 36.080172 -115.145197 285 2094ft 3kts
02-Feb-20 11:19 36.080183 -115.145652 270 2095ft 0kts
02-Feb-20 11:20 36.080183 -115.145652 270 2095ft 0kts

Navigation Log

Ident Type
Flight plan parsing failed, navigation log unavailable